Time;durP1;ratioP1;P1;durP2;ratioP2;P2;SDS_P1;SDS_P2;PMS_P1;PMS_P2;Temp;Humidity;BMP_temperature;BMP_pressure;BME280_temperature;BME280_humidity;BME280_pressure;Samples;Min_cycle;Max_cycle;Signal;HPM_P1;HPM_P2
2021/06/12 06:09:25;;;;;;;12.10;2.88;;;;;;;;;;7144634;27;20577;-80
2021/06/12 06:12:46;;;;;;;9.75;3.42;;;;;;;;;;7116464;27;20468;-80
2021/06/12 06:16:08;;;;;;;6.20;3.30;;;;;;;;;;7105769;27;20043;-80
2021/06/12 06:19:28;;;;;;;13.80;3.72;;;;;;;;;;7096744;27;20046;-82
2021/06/12 06:22:49;;;;;;;15.70;3.50;;;;;;;;;;7131478;27;20167;-82
2021/06/12 06:26:09;;;;;;;9.23;3.45;;;;;;;;;;7120601;27;20109;-82
2021/06/12 06:29:29;;;;;;;5.80;3.70;;;;;;;;;;7118360;27;20043;-83
2021/06/12 06:32:50;;;;;;;4.85;3.17;;;;;;;;;;7123541;27;20046;-82
2021/06/12 06:36:10;;;;;;;6.47;3.28;;;;;;;;;;7122457;27;20047;-79
2021/06/12 06:39:31;;;;;;;12.65;3.70;;;;;;;;;;7120682;27;20200;-79
2021/06/12 06:42:52;;;;;;;8.63;3.50;;;;;;;;;;7130060;27;20039;-79
2021/06/12 06:46:12;;;;;;;6.95;2.83;;;;;;;;;;7129757;27;20146;-80
2021/06/12 06:49:34;;;;;;;6.15;2.80;;;;;;;;;;7117668;27;20111;-81
2021/06/12 06:52:55;;;;;;;8.68;4.10;;;;;;;;;;7110736;27;20503;-79
2021/06/12 06:56:15;;;;;;;8.05;2.90;;;;;;;;;;7103163;27;20083;-80
2021/06/12 06:59:36;;;;;;;7.38;3.47;;;;;;;;;;7109290;27;20578;-79
2021/06/12 07:02:56;;;;;;;13.57;3.20;;;;;;;;;;7124906;27;20031;-80
2021/06/12 07:06:17;;;;;;;6.75;3.00;;;;;;;;;;7121921;27;20030;-80
2021/06/12 07:09:37;;;;;;;11.60;3.63;;;;;;;;;;7120551;27;20395;-81
2021/06/12 07:12:59;;;;;;;9.23;3.70;;;;;;;;;;7099979;27;20046;-81
2021/06/12 07:16:20;;;;;;;10.50;3.38;;;;;;;;;;7096646;27;20061;-80
2021/06/12 07:19:40;;;;;;;7.75;2.92;;;;;;;;;;7083384;27;20046;-80
2021/06/12 07:23:01;;;;;;;8.02;3.28;;;;;;;;;;7095342;27;20043;-80
2021/06/12 07:26:21;;;;;;;9.00;3.42;;;;;;;;;;7096280;27;20054;-80
2021/06/12 07:29:41;;;;;;;7.68;3.00;;;;;;;;;;7093190;27;20456;-80
2021/06/12 07:33:02;;;;;;;7.35;2.90;;;;;;;;;;7093668;27;20495;-80
2021/06/12 07:36:23;;;;;;;15.55;3.42;;;;;;;;;;7093191;27;20089;-80
2021/06/12 07:39:44;;;;;;;11.70;3.80;;;;;;;;;;7110779;27;20051;-82
2021/06/12 07:43:04;;;;;;;6.07;2.88;;;;;;;;;;7097709;27;20078;-81
2021/06/12 07:46:25;;;;;;;3.70;2.40;;;;;;;;;;7093296;27;20042;-81
2021/06/12 07:49:46;;;;;;;6.60;3.10;;;;;;;;;;7096970;27;20046;-81
2021/06/12 07:53:06;;;;;;;6.80;2.55;;;;;;;;;;7111509;27;20043;-81
2021/06/12 07:56:27;;;;;;;4.65;3.40;;;;;;;;;;7093195;27;20043;-81
2021/06/12 07:59:47;;;;;;;9.90;3.03;;;;;;;;;;7087261;27;20050;-82
2021/06/12 08:03:07;;;;;;;5.47;2.88;;;;;;;;;;7099770;27;20070;-82
2021/06/12 08:06:28;;;;;;;7.15;3.03;;;;;;;;;;7083580;27;20401;-82
2021/06/12 08:09:50;;;;;;;10.02;3.03;;;;;;;;;;7096460;27;20103;-82
2021/06/12 08:13:10;;;;;;;3.00;2.70;;;;;;;;;;7097515;27;20134;-82
2021/06/12 08:16:31;;;;;;;3.53;2.85;;;;;;;;;;7098044;27;20069;-82
2021/06/12 08:19:51;;;;;;;11.23;3.03;;;;;;;;;;7097565;27;20047;-82
2021/06/12 08:23:12;;;;;;;4.63;2.63;;;;;;;;;;7089463;27;20047;-80
2021/06/12 08:26:32;;;;;;;5.15;2.83;;;;;;;;;;7085675;27;20050;-80
2021/06/12 08:29:53;;;;;;;3.63;3.00;;;;;;;;;;7075150;27;20043;-81
2021/06/12 08:33:14;;;;;;;4.40;2.90;;;;;;;;;;7068690;27;20044;-81
2021/06/12 08:36:34;;;;;;;4.15;3.15;;;;;;;;;;7066333;27;20039;-80
2021/06/12 08:39:55;;;;;;;4.10;3.40;;;;;;;;;;7074629;27;20059;-80
2021/06/12 08:43:24;;;;;;;3.95;3.33;;;;;;;;;;7076303;27;20043;-80
2021/06/12 08:46:45;;;;;;;3.95;3.55;;;;;;;;;;7059738;27;20043;-80
2021/06/12 08:50:08;;;;;;;5.10;3.22;;;;;;;;;;7071962;27;20050;-80
2021/06/12 08:53:31;;;;;;;3.85;3.13;;;;;;;;;;7108028;27;20038;-81
2021/06/12 08:56:52;;;;;;;5.30;3.47;;;;;;;;;;7090972;27;20054;-80
2021/06/12 09:00:14;;;;;;;4.10;3.33;;;;;;;;;;7078263;27;20087;-81
2021/06/12 09:03:45;;;;;;;5.03;3.60;;;;;;;;;;7106801;27;20464;-81
2021/06/12 09:07:21;;;;;;;5.75;3.85;;;;;;;;;;7091488;27;20057;-80
2021/06/12 09:10:56;;;;;;;9.80;4.75;;;;;;;;;;7110061;27;20047;-81
2021/06/12 09:14:16;;;;;;;7.75;5.53;;;;;;;;;;7085103;27;20051;-82
2021/06/12 09:17:38;;;;;;;8.20;5.20;;;;;;;;;;7109353;27;20093;-82
2021/06/12 09:20:59;;;;;;;7.75;4.90;;;;;;;;;;7095303;27;20051;-82
2021/06/12 09:24:19;;;;;;;5.50;4.70;;;;;;;;;;7109795;27;20125;-82
2021/06/12 09:27:40;;;;;;;5.53;4.70;;;;;;;;;;7097844;27;20099;-83
2021/06/12 09:31:24;;;;;;;7.68;4.53;;;;;;;;;;7108487;27;20501;-82
2021/06/12 09:34:46;;;;;;;7.30;5.13;;;;;;;;;;7108874;27;20576;-82
2021/06/12 09:38:33;;;;;;;7.20;4.57;;;;;;;;;;7074438;27;20051;-83
2021/06/12 09:41:55;;;;;;;4.85;4.18;;;;;;;;;;7079458;27;20124;-82
2021/06/12 09:45:25;;;;;;;5.28;4.57;;;;;;;;;;7090974;27;20386;-82
2021/06/12 09:48:55;;;;;;;5.15;4.13;;;;;;;;;;7094599;27;20051;-80
2021/06/12 09:52:17;;;;;;;6.88;4.28;;;;;;;;;;7096810;27;20035;-81
2021/06/12 09:55:38;;;;;;;6.82;4.30;;;;;;;;;;7089323;27;20043;-81
2021/06/12 09:59:00;;;;;;;6.90;4.53;;;;;;;;;;7109042;27;20061;-81
2021/06/12 10:02:39;;;;;;;5.70;4.38;;;;;;;;;;7109226;27;21284;-81
2021/06/12 10:06:10;;;;;;;9.40;3.80;;;;;;;;;;7109062;27;20142;-81
2021/06/12 10:09:31;;;;;;;4.38;3.65;;;;;;;;;;7095679;27;20118;-80
2021/06/12 10:12:51;;;;;;;7.38;4.35;;;;;;;;;;7090473;27;20081;-80
2021/06/12 10:16:12;;;;;;;8.80;4.45;;;;;;;;;;7087989;27;20440;-80
2021/06/12 10:19:33;;;;;;;6.75;4.03;;;;;;;;;;7089841;27;20400;-81
2021/06/12 10:22:56;;;;;;;5.18;4.20;;;;;;;;;;7089988;27;20476;-81
2021/06/12 10:26:20;;;;;;;4.72;3.63;;;;;;;;;;7075334;27;20404;-81
2021/06/12 10:29:42;;;;;;;6.80;4.00;;;;;;;;;;7088194;27;20042;-81
2021/06/12 10:33:04;;;;;;;4.78;3.80;;;;;;;;;;7072722;27;20049;-81
2021/06/12 10:36:30;;;;;;;5.90;4.20;;;;;;;;;;7087899;27;20062;-81
2021/06/12 10:40:02;;;;;;;4.50;4.10;;;;;;;;;;7061835;27;20051;-81
2021/06/12 10:43:25;;;;;;;5.05;4.38;;;;;;;;;;7088986;27;20058;-81
2021/06/12 10:46:46;;;;;;;9.15;3.90;;;;;;;;;;7072456;27;20167;-80
2021/06/12 10:50:25;;;;;;;5.57;4.50;;;;;;;;;;7076225;27;20066;-80
2021/06/12 10:53:52;;;;;;;6.22;4.75;;;;;;;;;;7079592;27;20181;-80
2021/06/12 10:57:17;;;;;;;5.65;4.63;;;;;;;;;;7089064;27;20059;-80
2021/06/12 11:01:13;;;;;;;5.80;4.65;;;;;;;;;;7094093;27;20086;-81
2021/06/12 11:04:53;;;;;;;8.18;4.53;;;;;;;;;;7112992;27;20563;-80
2021/06/12 11:08:15;;;;;;;9.18;4.40;;;;;;;;;;7105453;27;20061;-81
2021/06/12 11:11:35;;;;;;;6.70;3.92;;;;;;;;;;7093630;27;20046;-80
2021/06/12 11:15:01;;;;;;;4.80;3.40;;;;;;;;;;7110798;27;20134;-80
2021/06/12 11:18:22;;;;;;;5.07;3.70;;;;;;;;;;7090402;27;20046;-80
2021/06/12 11:22:20;;;;;;;5.88;3.97;;;;;;;;;;7093805;27;20046;-80
2021/06/12 11:25:43;;;;;;;3.67;3.37;;;;;;;;;;7097729;27;20050;-83
2021/06/12 11:29:09;;;;;;;4.97;3.85;;;;;;;;;;7097478;27;20046;-83
2021/06/12 11:32:29;;;;;;;3.88;3.58;;;;;;;;;;7079637;27;20045;-83
2021/06/12 11:35:53;;;;;;;4.75;3.20;;;;;;;;;;7097483;27;20043;-83
2021/06/12 11:39:13;;;;;;;5.05;3.40;;;;;;;;;;7098155;27;20045;-81
2021/06/12 11:42:47;;;;;;;4.95;3.50;;;;;;;;;;7079509;28;20114;-81
2021/06/12 11:46:13;;;;;;;4.45;3.55;;;;;;;;;;7066460;27;20138;-83
2021/06/12 11:49:33;;;;;;;3.80;3.40;;;;;;;;;;7087654;27;20115;-80
2021/06/12 11:52:54;;;;;;;4.32;3.90;;;;;;;;;;7088804;27;20134;-80
2021/06/12 11:56:29;;;;;;;4.05;3.47;;;;;;;;;;7090489;27;20050;-80
2021/06/12 11:59:50;;;;;;;6.72;3.85;;;;;;;;;;7070875;27;20104;-80
2021/06/12 12:03:15;;;;;;;6.22;3.92;;;;;;;;;;7095056;27;20073;-81
2021/06/12 12:06:36;;;;;;;3.90;3.60;;;;;;;;;;7082853;27;20391;-81
2021/06/12 12:09:58;;;;;;;4.65;3.80;;;;;;;;;;7068535;27;20050;-80
2021/06/12 12:13:39;;;;;;;4.82;4.13;;;;;;;;;;7064483;27;20058;-80
2021/06/12 12:17:01;;;;;;;4.40;3.97;;;;;;;;;;7065380;27;20497;-80
2021/06/12 12:20:21;;;;;;;4.07;3.67;;;;;;;;;;7061325;28;20396;-80
2021/06/12 12:23:42;;;;;;;5.50;3.75;;;;;;;;;;7084501;27;20492;-80
2021/06/12 12:27:08;;;;;;;5.13;3.90;;;;;;;;;;7092679;27;20502;-81
2021/06/12 12:30:29;;;;;;;4.68;4.28;;;;;;;;;;7082698;27;20039;-81
2021/06/12 12:33:50;;;;;;;4.78;4.05;;;;;;;;;;7065665;28;20087;-81
2021/06/12 12:37:18;;;;;;;4.60;3.88;;;;;;;;;;7064266;27;20082;-82
2021/06/12 12:40:39;;;;;;;7.00;4.83;;;;;;;;;;7086461;27;20038;-82
2021/06/12 12:44:12;;;;;;;6.28;4.47;;;;;;;;;;7098942;27;20059;-82
2021/06/12 12:47:33;;;;;;;4.40;4.00;;;;;;;;;;7064048;27;20050;-82
2021/06/12 12:50:53;;;;;;;4.85;4.28;;;;;;;;;;7063669;27;20055;-80
2021/06/12 12:54:15;;;;;;;7.22;4.55;;;;;;;;;;7106396;27;20055;-81
2021/06/12 12:57:46;;;;;;;6.18;4.07;;;;;;;;;;7068790;27;20054;-81
2021/06/12 13:01:09;;;;;;;4.40;4.00;;;;;;;;;;7045717;27;20043;-81
2021/06/12 13:04:34;;;;;;;7.22;4.38;;;;;;;;;;7063174;27;20099;-81
2021/06/12 13:07:56;;;;;;;5.28;4.35;;;;;;;;;;7064264;27;20039;-80
2021/06/12 13:11:16;;;;;;;7.82;4.28;;;;;;;;;;7091861;27;20488;-82
2021/06/12 13:14:43;;;;;;;9.13;4.93;;;;;;;;;;7076566;27;20053;-82
2021/06/12 13:18:04;;;;;;;6.38;5.05;;;;;;;;;;7074041;27;20051;-80
2021/06/12 13:21:24;;;;;;;6.65;5.30;;;;;;;;;;7081035;27;20151;-80
2021/06/12 13:24:56;;;;;;;5.88;5.25;;;;;;;;;;7088656;22;20210;-81
2021/06/12 13:28:18;;;;;;;9.90;4.95;;;;;;;;;;7012299;28;20047;-81
2021/06/12 13:31:40;;;;;;;6.55;5.10;;;;;;;;;;7005781;28;20055;-82
2021/06/12 13:35:01;;;;;;;5.63;4.45;;;;;;;;;;6987381;28;20079;-82
2021/06/12 13:38:29;;;;;;;9.07;4.60;;;;;;;;;;7023164;28;20063;-83
2021/06/12 13:41:49;;;;;;;8.52;4.50;;;;;;;;;;7019733;28;20055;-82
2021/06/12 13:45:11;;;;;;;5.95;4.65;;;;;;;;;;7017682;28;20184;-83
2021/06/12 13:48:31;;;;;;;7.70;4.85;;;;;;;;;;7018333;28;20056;-83
2021/06/12 13:51:52;;;;;;;6.72;4.50;;;;;;;;;;7018325;28;20394;-83
2021/06/12 13:55:13;;;;;;;10.70;4.43;;;;;;;;;;7019826;28;20118;-82
2021/06/12 13:58:35;;;;;;;5.65;4.55;;;;;;;;;;7016544;28;20094;-81
2021/06/12 14:01:55;;;;;;;11.40;4.63;;;;;;;;;;7001908;28;20489;-81
2021/06/12 14:05:16;;;;;;;5.18;4.68;;;;;;;;;;6995649;28;20055;-83
2021/06/12 14:08:36;;;;;;;6.05;4.05;;;;;;;;;;7004378;28;20044;-81
2021/06/12 14:11:56;;;;;;;7.32;4.50;;;;;;;;;;7003304;28;20079;-81
2021/06/12 14:15:17;;;;;;;4.80;4.30;;;;;;;;;;7022621;28;20067;-80
2021/06/12 14:18:37;;;;;;;8.57;4.03;;;;;;;;;;7005319;28;20047;-82
2021/06/12 14:21:58;;;;;;;7.20;4.50;;;;;;;;;;7023530;28;20040;-82
2021/06/12 14:25:19;;;;;;;5.85;3.65;;;;;;;;;;7023278;28;20520;-82
2021/06/12 14:28:39;;;;;;;4.47;3.85;;;;;;;;;;7005897;28;20044;-82
2021/06/12 14:32:00;;;;;;;4.25;3.70;;;;;;;;;;7028389;28;20082;-82
2021/06/12 14:35:20;;;;;;;6.72;4.30;;;;;;;;;;7028533;28;20044;-82
2021/06/12 14:38:41;;;;;;;6.57;4.28;;;;;;;;;;7028179;28;20154;-82
2021/06/12 14:42:02;;;;;;;7.05;3.75;;;;;;;;;;7028442;28;20477;-82
2021/06/12 14:45:23;;;;;;;7.43;4.28;;;;;;;;;;7027785;28;20044;-82
2021/06/12 14:48:43;;;;;;;4.38;3.78;;;;;;;;;;7028447;28;20047;-83
2021/06/12 14:52:04;;;;;;;5.05;3.72;;;;;;;;;;7028047;28;20051;-82
2021/06/12 14:55:25;;;;;;;8.05;4.28;;;;;;;;;;7028131;28;20562;-84
2021/06/12 14:58:45;;;;;;;5.95;3.55;;;;;;;;;;7027842;28;20127;-84
2021/06/12 15:02:06;;;;;;;4.32;3.33;;;;;;;;;;7027986;28;20139;-84
2021/06/12 15:05:26;;;;;;;4.22;3.80;;;;;;;;;;7027348;28;20048;-82
2021/06/12 15:08:47;;;;;;;9.15;3.83;;;;;;;;;;7028014;28;20080;-82
2021/06/12 15:12:08;;;;;;;9.10;3.70;;;;;;;;;;7027531;28;20514;-82
2021/06/12 15:15:29;;;;;;;5.40;3.60;;;;;;;;;;7030698;28;20043;-83
2021/06/12 15:18:49;;;;;;;6.80;3.90;;;;;;;;;;7031208;28;20052;-83
2021/06/12 15:22:09;;;;;;;3.40;3.05;;;;;;;;;;7027480;28;20524;-84
2021/06/12 15:25:30;;;;;;;5.60;4.07;;;;;;;;;;7027255;28;20105;-83
2021/06/12 15:28:50;;;;;;;5.53;3.90;;;;;;;;;;7009424;28;20060;-83
2021/06/12 15:32:11;;;;;;;6.15;3.55;;;;;;;;;;7008780;28;20450;-83
2021/06/12 15:35:32;;;;;;;6.05;3.70;;;;;;;;;;6990556;28;20056;-82
2021/06/12 15:38:52;;;;;;;4.63;3.70;;;;;;;;;;7007516;28;20145;-84
2021/06/12 15:42:16;;;;;;;4.63;3.60;;;;;;;;;;7024897;28;20135;-84
2021/06/12 15:45:37;;;;;;;3.95;3.55;;;;;;;;;;7023253;28;20047;-82
2021/06/12 15:48:57;;;;;;;7.43;3.58;;;;;;;;;;7001397;28;20058;-82
2021/06/12 15:52:18;;;;;;;5.07;3.60;;;;;;;;;;7026577;28;20091;-82
2021/06/12 15:55:40;;;;;;;3.78;3.47;;;;;;;;;;7026178;28;20044;-83
2021/06/12 15:59:00;;;;;;;3.70;3.40;;;;;;;;;;7026763;28;20059;-84
2021/06/12 16:02:21;;;;;;;4.93;3.17;;;;;;;;;;7026512;28;20067;-82
2021/06/12 16:05:41;;;;;;;5.35;3.28;;;;;;;;;;7026667;28;20055;-81
2021/06/12 16:09:02;;;;;;;3.65;3.28;;;;;;;;;;7025927;28;20052;-81
2021/06/12 16:12:23;;;;;;;3.75;3.38;;;;;;;;;;7008121;28;20105;-81
2021/06/12 16:15:43;;;;;;;5.65;3.53;;;;;;;;;;7025390;28;20044;-81
2021/06/12 16:19:04;;;;;;;4.13;3.28;;;;;;;;;;7005354;28;20056;-82
2021/06/12 16:22:24;;;;;;;5.70;3.70;;;;;;;;;;7023621;28;20071;-81
2021/06/12 16:25:44;;;;;;;3.45;3.15;;;;;;;;;;6990332;28;20509;-81
2021/06/12 16:29:05;;;;;;;3.80;2.97;;;;;;;;;;7024928;28;20134;-81
2021/06/12 16:32:26;;;;;;;4.28;3.20;;;;;;;;;;7025369;28;20108;-80
2021/06/12 16:35:47;;;;;;;6.43;3.28;;;;;;;;;;7006958;28;20131;-80
2021/06/12 16:39:08;;;;;;;3.45;3.15;;;;;;;;;;7007276;28;20108;-80
2021/06/12 16:42:29;;;;;;;5.32;3.60;;;;;;;;;;7007565;28;20109;-81
2021/06/12 16:45:49;;;;;;;4.97;3.25;;;;;;;;;;7025653;28;20123;-80
2021/06/12 16:49:10;;;;;;;4.63;3.15;;;;;;;;;;7009803;28;20492;-81
2021/06/12 16:52:30;;;;;;;3.25;2.95;;;;;;;;;;7006374;28;20036;-80
2021/06/12 16:56:05;;;;;;;3.65;2.85;;;;;;;;;;6992603;28;20047;-81
2021/06/12 16:59:25;;;;;;;4.18;3.33;;;;;;;;;;7009263;28;20452;-81
2021/06/12 17:02:46;;;;;;;4.85;3.33;;;;;;;;;;7025384;28;20500;-81
2021/06/12 17:06:07;;;;;;;3.95;3.55;;;;;;;;;;6997331;28;20051;-80
2021/06/12 17:09:27;;;;;;;3.78;3.40;;;;;;;;;;7005640;28;20124;-80
2021/06/12 17:12:50;;;;;;;3.38;3.08;;;;;;;;;;7006770;28;20126;-81
2021/06/12 17:16:11;;;;;;;4.32;3.30;;;;;;;;;;7024899;28;20409;-81
2021/06/12 17:19:32;;;;;;;3.58;3.15;;;;;;;;;;7024288;28;20499;-80
2021/06/12 17:22:52;;;;;;;3.35;3.05;;;;;;;;;;7025014;28;20213;-81
2021/06/12 17:26:13;;;;;;;3.90;3.20;;;;;;;;;;7014219;28;20376;-81
2021/06/12 17:29:33;;;;;;;3.63;3.03;;;;;;;;;;6975240;28;20056;-81
2021/06/12 17:32:55;;;;;;;4.53;3.40;;;;;;;;;;6986162;28;20054;-80
2021/06/12 17:36:16;;;;;;;7.55;3.38;;;;;;;;;;6998109;28;20507;-81
2021/06/12 17:39:36;;;;;;;6.13;3.22;;;;;;;;;;6987753;28;20432;-81
2021/06/12 17:42:58;;;;;;;3.17;2.88;;;;;;;;;;6993803;28;20071;-81
2021/06/12 17:46:19;;;;;;;4.05;3.13;;;;;;;;;;7016813;28;20390;-81
2021/06/12 17:49:40;;;;;;;3.65;3.08;;;;;;;;;;7004583;28;20063;-81
2021/06/12 17:53:00;;;;;;;4.50;2.88;;;;;;;;;;7023773;28;20430;-81
2021/06/12 17:56:21;;;;;;;3.58;3.28;;;;;;;;;;7023364;28;20097;-81
2021/06/12 17:59:42;;;;;;;5.40;2.97;;;;;;;;;;7016789;28;20113;-81
2021/06/12 18:03:03;;;;;;;3.83;3.17;;;;;;;;;;7023495;28;20044;-80
2021/06/12 18:06:23;;;;;;;5.82;3.20;;;;;;;;;;7004098;28;20496;-81
2021/06/12 18:09:45;;;;;;;6.72;3.17;;;;;;;;;;7023733;28;20048;-80
2021/06/12 18:13:06;;;;;;;5.72;2.83;;;;;;;;;;6975883;28;20054;-80
2021/06/12 18:16:27;;;;;;;3.67;3.25;;;;;;;;;;7000283;28;20048;-81
2021/06/12 18:19:47;;;;;;;3.42;3.13;;;;;;;;;;7019108;28;20044;-81
2021/06/12 18:23:09;;;;;;;9.10;3.13;;;;;;;;;;7030422;28;20135;-81
2021/06/12 18:26:30;;;;;;;6.55;3.33;;;;;;;;;;7000985;28;20130;-80
2021/06/12 18:29:50;;;;;;;4.30;3.10;;;;;;;;;;7022632;28;20048;-80
2021/06/12 18:33:14;;;;;;;7.88;3.00;;;;;;;;;;7022363;28;20043;-81
2021/06/12 18:36:36;;;;;;;4.65;3.38;;;;;;;;;;7023909;28;20048;-81
2021/06/12 18:39:57;;;;;;;5.68;3.55;;;;;;;;;;7004700;28;20040;-82
2021/06/12 18:43:17;;;;;;;4.75;3.20;;;;;;;;;;7028974;28;20047;-80
2021/06/12 18:46:38;;;;;;;4.30;3.25;;;;;;;;;;7021675;28;20498;-81
2021/06/12 18:49:58;;;;;;;7.22;3.63;;;;;;;;;;7021861;28;20055;-80
2021/06/12 18:53:18;;;;;;;8.27;4.15;;;;;;;;;;7023781;28;20516;-80
2021/06/12 18:56:39;;;;;;;10.15;4.28;;;;;;;;;;7000570;28;20071;-81
2021/06/12 18:59:59;;;;;;;10.00;3.58;;;;;;;;;;7019389;28;20048;-80
2021/06/12 19:03:20;;;;;;;9.20;4.10;;;;;;;;;;7029463;28;20040;-81
2021/06/12 19:06:40;;;;;;;7.40;4.18;;;;;;;;;;7004810;28;20454;-80
2021/06/12 19:10:04;;;;;;;12.52;4.05;;;;;;;;;;7016759;28;20081;-81
2021/06/12 19:13:24;;;;;;;6.22;3.40;;;;;;;;;;7022692;28;20485;-81
2021/06/12 19:16:49;;;;;;;12.45;4.90;;;;;;;;;;7017003;28;20051;-80
2021/06/12 19:20:11;;;;;;;23.05;4.40;;;;;;;;;;7015159;28;20044;-83
2021/06/12 19:23:32;;;;;;;14.52;5.22;;;;;;;;;;7024997;28;20054;-85
2021/06/12 19:26:54;;;;;;;28.77;5.20;;;;;;;;;;7027410;28;20040;-86
2021/06/12 19:30:15;;;;;;;12.07;5.40;;;;;;;;;;7008383;28;20051;-85
2021/06/12 19:33:35;;;;;;;11.45;5.32;;;;;;;;;;7021102;28;20051;-85
2021/06/12 19:40:17;;;;;;;12.25;5.38;;;;;;;;;;7027393;28;20040;-83
2021/06/12 19:43:37;;;;;;;13.05;4.75;;;;;;;;;;7018156;28;20039;-84
2021/06/12 19:46:58;;;;;;;14.05;4.78;;;;;;;;;;7026874;28;20059;-85
2021/06/12 19:50:18;;;;;;;18.83;5.18;;;;;;;;;;7026491;28;20044;-85
2021/06/12 19:53:39;;;;;;;6.40;4.60;;;;;;;;;;7026749;28;20565;-86
2021/06/12 19:57:01;;;;;;;9.95;5.18;;;;;;;;;;6997885;28;20498;-86
2021/06/12 20:00:23;;;;;;;11.70;5.60;;;;;;;;;;7005866;28;20478;-85
2021/06/12 20:03:43;;;;;;;8.35;5.63;;;;;;;;;;7007813;28;20058;-85
2021/06/12 20:07:03;;;;;;;11.93;6.03;;;;;;;;;;7026438;28;20056;-85
2021/06/12 20:10:25;;;;;;;6.55;5.40;;;;;;;;;;7023931;28;20507;-84
2021/06/12 20:13:46;;;;;;;12.35;5.05;;;;;;;;;;7000360;28;20044;-82
2021/06/12 20:17:06;;;;;;;6.93;5.85;;;;;;;;;;7025817;28;20136;-82
2021/06/12 20:20:27;;;;;;;9.70;5.75;;;;;;;;;;7005959;28;20066;-81
2021/06/12 20:23:47;;;;;;;8.55;6.03;;;;;;;;;;7023357;28;20052;-86
2021/06/12 20:27:08;;;;;;;28.02;5.63;;;;;;;;;;7025863;28;20044;-81
2021/06/12 20:30:28;;;;;;;9.80;5.13;;;;;;;;;;7024952;28;20044;-82
2021/06/12 20:33:49;;;;;;;28.05;5.30;;;;;;;;;;7005939;28;20408;-82
2021/06/12 20:37:10;;;;;;;20.00;4.97;;;;;;;;;;7024499;28;20367;-81
2021/06/12 20:40:30;;;;;;;16.73;4.50;;;;;;;;;;7021773;28;20047;-81
2021/06/12 20:43:51;;;;;;;23.25;5.40;;;;;;;;;;7021235;28;20505;-81
2021/06/12 20:47:11;;;;;;;20.60;5.13;;;;;;;;;;7024725;28;20090;-82
2021/06/12 20:50:31;;;;;;;33.10;6.90;;;;;;;;;;7023380;28;20131;-84
2021/06/12 20:53:52;;;;;;;18.90;4.65;;;;;;;;;;7023258;28;20409;-83
2021/06/12 20:57:15;;;;;;;21.15;5.22;;;;;;;;;;7024636;28;20370;-85
2021/06/12 21:00:37;;;;;;;21.77;5.18;;;;;;;;;;7024011;28;20044;-86
2021/06/12 21:03:57;;;;;;;22.55;4.50;;;;;;;;;;7024364;28;20043;-85
2021/06/12 21:07:17;;;;;;;26.35;4.55;;;;;;;;;;7025260;28;20048;-85
2021/06/12 21:10:38;;;;;;;13.68;4.47;;;;;;;;;;7023109;28;20051;-85
2021/06/12 21:13:59;;;;;;;13.82;5.07;;;;;;;;;;7026182;28;20044;-85
2021/06/12 21:17:19;;;;;;;24.15;4.93;;;;;;;;;;7025582;28;20055;-86
2021/06/12 21:20:40;;;;;;;20.33;4.68;;;;;;;;;;7021928;28;20123;-86
2021/06/12 21:24:00;;;;;;;12.82;3.90;;;;;;;;;;7023645;28;20071;-89
2021/06/12 21:27:21;;;;;;;12.43;4.18;;;;;;;;;;6990978;28;20369;-87
2021/06/12 21:30:41;;;;;;;18.10;4.82;;;;;;;;;;7015529;28;20053;-87
2021/06/12 21:34:02;;;;;;;17.90;5.53;;;;;;;;;;7020566;28;20082;-86
2021/06/12 21:37:22;;;;;;;14.07;6.03;;;;;;;;;;6998145;28;20151;-85
2021/06/12 21:40:43;;;;;;;20.60;5.82;;;;;;;;;;7002700;28;20051;-86
2021/06/12 21:44:03;;;;;;;28.90;5.72;;;;;;;;;;7006462;28;20044;-87
2021/06/12 21:47:24;;;;;;;15.55;5.30;;;;;;;;;;7003276;28;20079;-88
2021/06/12 21:50:45;;;;;;;14.48;6.05;;;;;;;;;;7017410;28;20044;-88
2021/06/12 21:54:05;;;;;;;11.05;5.82;;;;;;;;;;7022190;28;20124;-88
2021/06/12 21:57:25;;;;;;;7.72;5.22;;;;;;;;;;6995447;28;20067;-87
2021/06/12 22:01:00;;;;;;;12.35;5.78;;;;;;;;;;7024187;28;20080;-87
2021/06/12 22:04:21;;;;;;;9.77;6.00;;;;;;;;;;7025149;28;20382;-88
2021/06/12 22:07:42;;;;;;;12.80;6.55;;;;;;;;;;7024584;28;20070;-90
2021/06/12 22:11:04;;;;;;;11.80;5.50;;;;;;;;;;6998357;28;20492;-89
2021/06/12 22:14:25;;;;;;;11.25;5.53;;;;;;;;;;6995748;28;20535;-89
2021/06/12 22:17:47;;;;;;;10.40;5.88;;;;;;;;;;7006108;28;20594;-87
2021/06/12 22:24:28;;;;;;;8.73;4.90;;;;;;;;;;7017648;28;20105;-86
2021/06/12 22:27:48;;;;;;;7.22;5.07;;;;;;;;;;7010551;28;20087;-87
2021/06/12 22:31:09;;;;;;;11.15;6.32;;;;;;;;;;7003522;28;20044;-91
2021/06/12 22:34:29;;;;;;;12.07;5.82;;;;;;;;;;7010313;28;20092;-91
2021/06/12 22:37:50;;;;;;;10.13;5.53;;;;;;;;;;6978183;28;20147;-90
2021/06/12 22:41:10;;;;;;;9.50;5.70;;;;;;;;;;7011303;28;20044;-90
2021/06/12 22:44:32;;;;;;;10.38;5.78;;;;;;;;;;7004451;28;20056;-91
2021/06/12 22:47:52;;;;;;;10.05;5.50;;;;;;;;;;6990280;28;20059;-90
2021/06/12 22:51:13;;;;;;;7.05;4.90;;;;;;;;;;6991827;28;20072;-90
2021/06/12 22:54:34;;;;;;;8.10;5.25;;;;;;;;;;6993511;28;20043;-91
2021/06/12 22:57:54;;;;;;;8.55;5.38;;;;;;;;;;7008211;28;20050;-90
2021/06/12 23:01:15;;;;;;;11.60;6.00;;;;;;;;;;7007474;28;20075;-90
2021/06/12 23:04:35;;;;;;;8.65;5.55;;;;;;;;;;7009461;28;20076;-89
2021/06/12 23:07:55;;;;;;;6.90;5.07;;;;;;;;;;7009170;28;20079;-89
2021/06/12 23:11:16;;;;;;;5.97;5.15;;;;;;;;;;7003484;28;20047;-89
2021/06/12 23:14:36;;;;;;;6.25;4.95;;;;;;;;;;6993749;28;20069;-89
2021/06/12 23:17:57;;;;;;;8.27;6.45;;;;;;;;;;7028337;28;20051;-89
2021/06/12 23:21:17;;;;;;;7.38;5.47;;;;;;;;;;6985448;28;20068;-90
2021/06/12 23:24:38;;;;;;;7.68;4.60;;;;;;;;;;7027171;28;20047;-90
2021/06/12 23:27:58;;;;;;;7.95;4.68;;;;;;;;;;6990700;28;20466;-89
2021/06/12 23:31:19;;;;;;;8.00;5.53;;;;;;;;;;7017626;28;20101;-90
2021/06/12 23:34:39;;;;;;;8.13;5.80;;;;;;;;;;7027186;28;20048;-91
2021/06/12 23:38:00;;;;;;;6.13;4.78;;;;;;;;;;6989202;28;20090;-90
2021/06/12 23:41:20;;;;;;;11.93;4.53;;;;;;;;;;6991850;28;20063;-89
2021/06/12 23:44:40;;;;;;;11.38;4.65;;;;;;;;;;7009749;28;20044;-90
2021/06/12 23:48:01;;;;;;;10.55;4.90;;;;;;;;;;6990729;28;20105;-89
2021/06/12 23:51:21;;;;;;;6.20;4.88;;;;;;;;;;7009346;28;20044;-88
2021/06/12 23:54:42;;;;;;;10.90;5.53;;;;;;;;;;7027345;28;20497;-88
2021/06/12 23:58:02;;;;;;;9.90;5.13;;;;;;;;;;7009819;28;20044;-88
